createdAt,value
2022-12-08T00:01:37.991Z,10.90
2022-12-08T00:04:09.937Z,12.70
2022-12-08T00:07:00.630Z,8.90
2022-12-08T00:09:38.719Z,10.60
2022-12-08T00:12:12.039Z,9.90
2022-12-08T00:14:45.384Z,9.80
2022-12-08T00:17:17.528Z,11.90
2022-12-08T00:19:50.472Z,10.20
2022-12-08T00:22:21.285Z,11.70
2022-12-08T00:24:52.506Z,7.30
2022-12-08T00:27:23.763Z,10.50
2022-12-08T00:29:54.654Z,11.30
2022-12-08T00:32:25.460Z,11.10
2022-12-08T00:34:56.318Z,10.40
2022-12-08T00:37:27.403Z,8.20
2022-12-08T00:39:58.404Z,10.40
2022-12-08T00:42:29.164Z,10.30
2022-12-08T00:45:00.084Z,11.00
2022-12-08T00:47:31.573Z,11.80
2022-12-08T00:50:03.002Z,8.30
2022-12-08T00:52:34.454Z,13.00
2022-12-08T00:55:06.063Z,12.30
2022-12-08T00:57:36.997Z,11.10
2022-12-08T01:00:09.780Z,12.30
2022-12-08T01:02:41.510Z,15.60
2022-12-08T01:05:12.547Z,11.70
2022-12-08T01:07:43.519Z,11.90
2022-12-08T01:10:14.448Z,14.10
2022-12-08T01:12:45.505Z,14.10
2022-12-08T01:15:16.704Z,10.80
2022-12-08T01:17:47.701Z,11.90
2022-12-08T01:20:18.987Z,11.00
2022-12-08T01:22:49.819Z,13.30
2022-12-08T01:25:20.807Z,13.40
2022-12-08T01:27:52.811Z,12.60
2022-12-08T01:30:24.341Z,12.80
2022-12-08T01:32:55.485Z,15.10
2022-12-08T01:35:26.585Z,12.40
2022-12-08T01:37:57.735Z,11.20
2022-12-08T01:40:28.722Z,17.40
2022-12-08T01:42:59.533Z,16.10
2022-12-08T01:45:32.659Z,13.60
2022-12-08T01:48:09.443Z,16.90
2022-12-08T01:50:44.130Z,13.70
2022-12-08T01:53:19.217Z,14.30
2022-12-08T01:55:54.185Z,17.40
2022-12-08T01:58:28.307Z,13.80
2022-12-08T02:00:59.748Z,17.50
2022-12-08T02:03:35.361Z,15.60
2022-12-08T02:06:07.119Z,17.10
2022-12-08T02:08:41.376Z,15.50
2022-12-08T02:11:13.719Z,10.10
2022-12-08T02:13:47.027Z,15.70
2022-12-08T02:16:34.098Z,17.10
2022-12-08T02:19:31.572Z,12.40
2022-12-08T02:22:08.692Z,15.50
2022-12-08T02:24:44.129Z,12.20
2022-12-08T02:27:37.092Z,11.50
2022-12-08T02:30:16.253Z,15.60
2022-12-08T02:33:10.567Z,14.10
2022-12-08T02:35:49.130Z,15.70
2022-12-08T02:38:28.503Z,14.60
2022-12-08T02:41:08.296Z,11.40
2022-12-08T02:43:43.970Z,15.20
2022-12-08T02:46:22.781Z,15.50
2022-12-08T02:48:56.808Z,15.50
2022-12-08T02:51:27.885Z,10.90
2022-12-08T02:53:59.825Z,14.30
2022-12-08T02:56:50.872Z,11.80
2022-12-08T02:59:34.375Z,13.10
2022-12-08T03:02:26.554Z,14.70
2022-12-08T03:05:06.552Z,12.60
2022-12-08T03:07:45.778Z,13.30
2022-12-08T03:10:26.571Z,13.70
2022-12-08T03:13:03.788Z,15.50
2022-12-08T03:15:36.492Z,14.80
2022-12-08T03:18:11.423Z,13.70
2022-12-08T03:20:45.660Z,10.40
2022-12-08T03:23:19.822Z,14.20
2022-12-08T03:25:56.044Z,12.70
2022-12-08T03:28:27.105Z,12.20
2022-12-08T03:31:03.727Z,14.70
2022-12-08T03:33:38.446Z,11.60
2022-12-08T03:36:12.342Z,14.00
2022-12-08T03:38:45.310Z,15.00
2022-12-08T03:41:19.547Z,11.80
2022-12-08T03:43:53.378Z,11.40
2022-12-08T03:48:56.787Z,11.10
2022-12-08T03:51:28.181Z,12.10
2022-12-08T03:53:59.210Z,9.60
2022-12-08T03:56:31.900Z,10.80
2022-12-08T03:59:02.942Z,12.80
2022-12-08T04:01:34.326Z,15.00
2022-12-08T04:04:05.506Z,13.00
2022-12-08T04:06:36.452Z,15.60
2022-12-08T04:09:07.522Z,13.00
2022-12-08T04:11:38.499Z,14.30
2022-12-08T04:14:09.386Z,13.40
2022-12-08T04:16:40.262Z,13.10
2022-12-08T04:19:11.191Z,9.60
2022-12-08T04:21:42.338Z,19.00
2022-12-08T04:24:13.454Z,14.10
2022-12-08T04:26:44.459Z,26.80
2022-12-08T04:29:15.481Z,20.90
2022-12-08T04:31:46.613Z,16.40
2022-12-08T04:36:46.993Z,13.20
2022-12-08T04:39:18.048Z,17.10
2022-12-08T04:41:48.865Z,13.00
2022-12-08T04:44:19.970Z,12.10
2022-12-08T04:46:51.191Z,13.90
2022-12-08T04:49:22.593Z,15.30
2022-12-08T04:51:53.512Z,13.40
2022-12-08T04:54:24.486Z,17.20
2022-12-08T04:56:55.479Z,16.00
2022-12-08T04:59:26.608Z,11.70
2022-12-08T05:01:57.989Z,12.90
2022-12-08T05:06:58.907Z,19.50
2022-12-08T05:09:30.120Z,15.30
2022-12-08T05:12:01.240Z,14.90
2022-12-08T05:14:32.284Z,15.40
2022-12-08T05:17:09.182Z,15.30
2022-12-08T05:22:10.276Z,15.40
2022-12-08T05:24:47.060Z,12.20
2022-12-08T05:27:18.707Z,17.60
2022-12-08T05:29:50.250Z,13.20
2022-12-08T05:32:21.185Z,12.00
2022-12-08T05:34:52.172Z,13.60
2022-12-08T05:37:23.406Z,14.00
2022-12-08T05:39:54.383Z,16.80
2022-12-08T05:42:25.584Z,9.30
2022-12-08T05:44:56.493Z,16.20
2022-12-08T05:47:31.763Z,15.50
2022-12-08T05:50:07.821Z,17.00
2022-12-08T05:52:39.374Z,15.00
2022-12-08T05:55:11.449Z,15.60
2022-12-08T05:57:42.468Z,14.50
2022-12-08T06:00:15.081Z,13.60
2022-12-08T06:02:46.205Z,19.60
2022-12-08T06:05:17.436Z,28.00
2022-12-08T06:07:48.464Z,17.10
2022-12-08T06:10:19.839Z,16.70
2022-12-08T06:12:50.955Z,16.30
2022-12-08T06:15:22.027Z,17.40
2022-12-08T06:17:52.894Z,12.70
2022-12-08T06:20:23.905Z,16.10
2022-12-08T06:22:55.030Z,17.70
2022-12-08T06:25:26.505Z,18.60
2022-12-08T06:27:57.283Z,19.50
2022-12-08T06:30:28.816Z,17.00
2022-12-08T06:33:00.153Z,15.30
2022-12-08T06:38:00.543Z,17.20
2022-12-08T06:40:31.828Z,18.80
2022-12-08T06:43:02.974Z,25.90
2022-12-08T06:45:34.191Z,28.70
2022-12-08T06:48:05.808Z,27.30
2022-12-08T06:50:36.835Z,30.00
2022-12-08T06:53:07.819Z,28.00
2022-12-08T06:58:29.866Z,22.80
2022-12-08T07:01:04.701Z,16.30
2022-12-08T07:03:35.572Z,19.50
2022-12-08T07:06:07.073Z,20.70
2022-12-08T07:11:14.205Z,22.50
2022-12-08T07:13:47.498Z,19.80
2022-12-08T07:16:18.445Z,21.90
2022-12-08T07:18:49.328Z,16.90
2022-12-08T07:21:20.868Z,22.70
2022-12-08T07:23:57.415Z,21.70
2022-12-08T07:26:29.185Z,22.60
2022-12-08T07:29:00.961Z,14.80
2022-12-08T07:31:31.794Z,15.30
2022-12-08T07:34:03.034Z,20.90
2022-12-08T07:36:34.298Z,24.90
2022-12-08T07:39:05.591Z,27.60
2022-12-08T07:41:36.807Z,20.00
2022-12-08T07:44:07.823Z,21.40
2022-12-08T07:46:38.786Z,17.80
2022-12-08T07:49:09.790Z,21.40
2022-12-08T07:51:40.936Z,22.00
2022-12-08T07:54:14.066Z,15.50
2022-12-08T07:56:45.611Z,22.90
2022-12-08T07:59:16.443Z,27.50
2022-12-08T08:02:06.313Z,19.30
2022-12-08T08:04:39.344Z,15.40
2022-12-08T08:07:10.625Z,18.70
2022-12-08T08:09:41.578Z,13.40
2022-12-08T08:15:05.134Z,17.20
2022-12-08T08:17:36.850Z,20.00
2022-12-08T08:20:09.854Z,20.10
2022-12-08T08:22:40.829Z,16.80
2022-12-08T08:25:12.097Z,15.90
2022-12-08T08:30:19.930Z,16.50
2022-12-08T08:32:52.427Z,17.40
2022-12-08T08:35:23.329Z,39.90
2022-12-08T08:37:54.497Z,23.50
2022-12-08T08:40:25.567Z,21.30
2022-12-08T08:42:56.359Z,16.30
2022-12-08T08:45:27.517Z,22.30
2022-12-08T08:47:59.055Z,17.50
2022-12-08T08:50:34.405Z,20.20
2022-12-08T08:53:08.235Z,23.50
2022-12-08T08:55:41.354Z,23.00
2022-12-08T08:58:12.430Z,15.50
2022-12-08T09:00:43.538Z,18.20
2022-12-08T09:08:15.061Z,20.80
2022-12-08T09:10:46.208Z,17.80
2022-12-08T09:13:17.109Z,18.90
2022-12-08T09:15:48.439Z,16.60
2022-12-08T09:20:48.973Z,15.40
2022-12-08T09:23:20.033Z,21.60
2022-12-08T09:25:50.923Z,15.50
2022-12-08T09:28:22.037Z,19.10
2022-12-08T09:30:53.673Z,22.40
2022-12-08T09:33:24.895Z,20.30
2022-12-08T09:35:55.824Z,15.30
2022-12-08T09:38:26.736Z,20.40
2022-12-08T09:40:57.721Z,15.50
2022-12-08T09:43:46.677Z,13.80
2022-12-08T09:46:19.540Z,23.20
2022-12-08T09:48:56.115Z,19.80
2022-12-08T09:51:29.707Z,15.90
2022-12-08T09:54:04.986Z,18.70
2022-12-08T09:56:38.068Z,18.80
2022-12-08T09:59:23.063Z,17.20
2022-12-08T10:01:54.304Z,16.70
2022-12-08T10:04:28.312Z,22.00
2022-12-08T10:07:14.152Z,16.10
2022-12-08T10:09:52.613Z,17.50
2022-12-08T10:12:29.350Z,13.10
2022-12-08T10:15:11.944Z,12.50
2022-12-08T10:17:48.539Z,28.30
2022-12-08T10:20:21.631Z,75.90
2022-12-08T10:22:57.238Z,35.20
2022-12-08T10:25:36.350Z,27.30
2022-12-08T10:28:09.075Z,23.10
2022-12-08T10:30:40.702Z,22.10
2022-12-08T10:33:17.585Z,16.00
2022-12-08T10:35:50.833Z,18.50
2022-12-08T10:38:27.289Z,21.20
2022-12-08T10:41:05.827Z,18.10
2022-12-08T10:43:40.622Z,18.50
2022-12-08T10:46:14.172Z,20.90
2022-12-08T10:48:53.025Z,22.90
2022-12-08T10:51:39.824Z,18.20
2022-12-08T10:54:30.206Z,52.40
2022-12-08T10:57:01.292Z,33.40
2022-12-08T10:59:35.825Z,17.30
2022-12-08T11:02:19.368Z,32.70
2022-12-08T11:05:00.553Z,21.70
2022-12-08T11:07:32.088Z,20.10
2022-12-08T11:10:03.748Z,22.00
2022-12-08T11:12:36.724Z,22.30
2022-12-08T11:15:15.652Z,36.30
2022-12-08T11:17:53.329Z,23.30
2022-12-08T11:20:27.451Z,15.20
2022-12-08T11:28:00.802Z,17.40
2022-12-08T11:30:37.016Z,34.40
2022-12-08T11:33:17.300Z,16.80
2022-12-08T11:35:52.887Z,24.70
2022-12-08T11:38:25.976Z,22.40
2022-12-08T11:41:00.589Z,22.80
2022-12-08T11:43:40.669Z,17.00
2022-12-08T11:46:17.843Z,26.60
2022-12-08T11:48:52.731Z,15.00
2022-12-08T11:51:29.786Z,18.10
2022-12-08T11:54:12.498Z,15.60
2022-12-08T11:56:46.036Z,22.70
2022-12-08T11:59:24.850Z,104.00
2022-12-08T12:01:56.338Z,95.40
2022-12-08T12:04:34.181Z,41.60
2022-12-08T12:07:26.506Z,14.90
2022-12-08T12:10:17.051Z,28.20
2022-12-08T12:13:05.265Z,19.20
2022-12-08T12:16:15.006Z,49.20
2022-12-08T12:18:48.853Z,48.30
2022-12-08T12:21:23.611Z,75.10
2022-12-08T12:23:58.031Z,43.60
2022-12-08T12:26:32.114Z,21.40
2022-12-08T12:29:06.219Z,38.50
2022-12-08T12:31:41.569Z,16.10
2022-12-08T12:34:18.171Z,13.70
2022-12-08T12:36:53.119Z,25.40
2022-12-08T12:39:27.772Z,19.60
2022-12-08T12:42:00.860Z,11.50
2022-12-08T12:44:43.503Z,11.10
2022-12-08T12:47:36.824Z,11.80
2022-12-08T12:50:13.292Z,13.60
2022-12-08T12:52:49.132Z,19.00
2022-12-08T12:55:28.661Z,20.10
2022-12-08T12:58:04.601Z,21.30
2022-12-08T13:00:35.582Z,11.90
2022-12-08T13:03:14.672Z,13.20
2022-12-08T13:05:52.718Z,9.10
2022-12-08T13:08:27.060Z,11.50
2022-12-08T13:11:04.166Z,11.50
2022-12-08T13:13:35.817Z,17.30
2022-12-08T13:16:19.164Z,13.30
2022-12-08T13:18:53.141Z,14.40
2022-12-08T13:21:26.796Z,17.60
2022-12-08T13:24:28.052Z,11.10
2022-12-08T13:27:33.870Z,13.70
2022-12-08T13:30:51.178Z,9.40
2022-12-08T13:33:27.682Z,9.50
2022-12-08T13:36:12.040Z,17.50
2022-12-08T13:38:46.879Z,19.80
2022-12-08T13:41:23.072Z,12.00
2022-12-08T13:47:32.028Z,16.20
2022-12-08T13:58:42.306Z,34.40
2022-12-08T14:04:22.121Z,14.00
2022-12-08T14:06:46.908Z,21.20
2022-12-08T14:09:21.993Z,15.40
2022-12-08T14:11:59.191Z,10.40
2022-12-08T14:17:26.246Z,10.60
2022-12-08T14:19:59.333Z,8.30
2022-12-08T14:22:36.559Z,11.00
2022-12-08T14:25:13.249Z,8.10
2022-12-08T14:27:45.088Z,10.40
2022-12-08T14:30:26.098Z,9.80
2022-12-08T14:32:59.406Z,13.60
2022-12-08T14:35:32.699Z,11.70
2022-12-08T14:38:05.870Z,11.40
2022-12-08T14:40:38.518Z,10.70
2022-12-08T14:43:17.566Z,9.20
2022-12-08T14:45:55.787Z,11.20
2022-12-08T14:48:29.013Z,12.10
2022-12-08T14:51:08.612Z,8.50
2022-12-08T14:53:42.678Z,11.80
2022-12-08T14:56:22.706Z,9.00
2022-12-08T14:59:06.057Z,8.30
2022-12-08T15:01:37.727Z,10.20
2022-12-08T15:04:16.375Z,8.80
2022-12-08T15:06:57.676Z,9.90
2022-12-08T15:09:37.138Z,8.40
2022-12-08T15:12:26.840Z,10.20
2022-12-08T15:15:00.697Z,8.90
2022-12-08T15:17:37.146Z,7.30
2022-12-08T15:20:31.678Z,8.90
2022-12-08T15:23:06.010Z,10.50
2022-12-08T15:28:07.483Z,9.00
2022-12-08T15:33:07.787Z,9.90
2022-12-08T15:35:40.959Z,10.30
2022-12-08T15:38:21.586Z,83.20
2022-12-08T15:40:52.605Z,39.00
2022-12-08T15:43:24.136Z,25.40
2022-12-08T15:45:59.451Z,20.80
2022-12-08T15:48:32.374Z,24.80
2022-12-08T15:51:03.596Z,27.20
2022-12-08T15:58:59.538Z,12.50
2022-12-08T16:09:46.659Z,15.50
2022-12-08T16:18:27.047Z,21.00
2022-12-08T16:21:12.510Z,15.00
2022-12-08T16:23:49.406Z,15.60
2022-12-08T16:29:20.675Z,13.30
2022-12-08T16:31:52.199Z,13.70
2022-12-08T16:34:23.353Z,15.00
2022-12-08T16:36:54.669Z,14.20
2022-12-08T16:42:12.669Z,13.50
2022-12-08T16:44:44.176Z,17.60
2022-12-08T16:49:44.518Z,19.80
2022-12-08T16:52:15.586Z,19.40
2022-12-08T16:54:46.569Z,21.50
2022-12-08T16:57:17.451Z,21.00
2022-12-08T16:59:48.601Z,26.00
2022-12-08T17:02:19.686Z,25.80
2022-12-08T17:04:51.029Z,21.60
2022-12-08T17:07:22.263Z,28.30
2022-12-08T17:09:53.165Z,25.70
2022-12-08T17:12:24.446Z,23.40
2022-12-08T17:14:55.329Z,21.80
2022-12-08T17:17:26.122Z,16.20
2022-12-08T17:19:57.338Z,18.90
2022-12-08T17:24:58.426Z,22.90
2022-12-08T17:27:29.872Z,18.40
2022-12-08T17:30:00.833Z,37.80
2022-12-08T17:32:32.209Z,36.00
2022-12-08T17:37:35.918Z,22.50
2022-12-08T17:40:09.996Z,23.10
2022-12-08T17:42:41.332Z,18.60
2022-12-08T17:47:42.454Z,18.20
2022-12-08T17:50:13.704Z,20.00
2022-12-08T17:52:44.936Z,16.90
2022-12-08T17:55:15.935Z,18.70
2022-12-08T17:57:46.920Z,17.10
2022-12-08T18:00:18.864Z,15.30
2022-12-08T18:03:00.933Z,14.60
2022-12-08T18:05:35.339Z,13.80
2022-12-08T18:08:06.571Z,13.40
2022-12-08T18:10:38.459Z,14.10
2022-12-08T18:13:10.031Z,14.20
2022-12-08T18:15:41.305Z,11.60
2022-12-08T18:18:12.248Z,12.90
2022-12-08T18:20:43.287Z,10.70
2022-12-08T18:23:14.446Z,12.90
2022-12-08T18:25:45.757Z,13.50
2022-12-08T18:28:16.871Z,14.50
2022-12-08T18:33:17.852Z,13.40
2022-12-08T18:35:49.003Z,13.40
2022-12-08T18:38:20.346Z,11.80
2022-12-08T18:40:51.491Z,14.60
2022-12-08T18:43:22.357Z,18.60
2022-12-08T18:46:01.152Z,16.70
2022-12-08T18:48:32.447Z,16.90
2022-12-08T18:51:03.408Z,21.90
2022-12-08T18:53:34.740Z,21.70
2022-12-08T18:56:05.930Z,26.20
2022-12-08T19:01:06.910Z,20.80
2022-12-08T19:03:39.432Z,19.30
2022-12-08T19:06:10.991Z,27.10
2022-12-08T19:08:42.271Z,33.40
2022-12-08T19:13:50.894Z,30.40
2022-12-08T19:16:22.024Z,28.50
2022-12-08T19:21:24.551Z,22.50
2022-12-08T19:23:58.410Z,16.40
2022-12-08T19:26:30.097Z,16.90
2022-12-08T19:29:01.732Z,14.50
2022-12-08T19:31:32.880Z,14.30
2022-12-08T19:34:05.308Z,16.70
2022-12-08T19:36:42.321Z,14.30
2022-12-08T19:39:36.290Z,15.20
2022-12-08T19:42:31.132Z,14.40
2022-12-08T19:45:06.032Z,14.70
2022-12-08T19:47:37.358Z,15.10
2022-12-08T19:50:30.008Z,17.10
2022-12-08T19:53:01.896Z,17.10
2022-12-08T19:55:34.099Z,15.00
2022-12-08T19:58:06.119Z,18.70
2022-12-08T20:00:38.441Z,16.10
2022-12-08T20:03:10.618Z,18.90
2022-12-08T20:05:43.133Z,17.30
2022-12-08T20:08:14.424Z,16.50
2022-12-08T20:10:46.873Z,18.70
2022-12-08T20:13:34.918Z,14.60
2022-12-08T20:16:06.152Z,16.50
2022-12-08T20:21:08.419Z,14.90
2022-12-08T20:23:39.803Z,13.00
2022-12-08T20:26:13.946Z,12.90
2022-12-08T20:28:45.703Z,23.20
2022-12-08T20:31:22.453Z,16.80
2022-12-08T20:33:53.929Z,17.00
2022-12-08T20:36:25.545Z,19.20
2022-12-08T20:38:57.545Z,13.50
2022-12-08T20:41:28.741Z,16.00
2022-12-08T20:43:59.645Z,11.90
2022-12-08T20:46:31.049Z,14.90
2022-12-08T20:49:03.954Z,15.30
2022-12-08T20:51:36.436Z,16.40
2022-12-08T20:54:09.907Z,15.50
2022-12-08T20:56:47.959Z,14.80
2022-12-08T20:59:20.512Z,13.50
2022-12-08T21:01:53.010Z,16.10
2022-12-08T21:04:24.710Z,52.60
2022-12-08T21:06:56.018Z,32.10
2022-12-08T21:09:27.212Z,21.60
2022-12-08T21:11:58.579Z,20.50
2022-12-08T21:14:29.787Z,22.80
2022-12-08T21:17:00.922Z,21.70
2022-12-08T21:19:32.192Z,18.70
2022-12-08T21:22:03.431Z,26.30
2022-12-08T21:27:05.889Z,20.20
2022-12-08T21:29:37.103Z,21.00
2022-12-08T21:32:08.558Z,28.00
2022-12-08T21:34:40.058Z,23.10
2022-12-08T21:37:11.160Z,18.50
2022-12-08T21:39:42.185Z,19.60
2022-12-08T21:42:34.243Z,20.00
2022-12-08T21:45:06.479Z,21.60
2022-12-08T21:47:37.705Z,24.80
2022-12-08T21:50:11.728Z,25.00
2022-12-08T21:52:45.024Z,24.40
2022-12-08T21:55:19.030Z,19.60
2022-12-08T21:57:50.489Z,17.50
2022-12-08T22:00:24.248Z,17.90
2022-12-08T22:02:55.769Z,22.50
2022-12-08T22:05:27.007Z,27.30
2022-12-08T22:07:58.545Z,20.70
2022-12-08T22:12:59.224Z,21.90
2022-12-08T22:18:01.539Z,20.50
2022-12-08T22:23:02.324Z,15.70
2022-12-08T22:25:33.761Z,13.90
2022-12-08T22:28:05.526Z,19.70
2022-12-08T22:30:39.211Z,26.80
2022-12-08T22:33:10.903Z,82.80
2022-12-08T22:35:42.109Z,44.90
2022-12-08T22:38:13.286Z,32.50
2022-12-08T22:40:44.299Z,33.00
2022-12-08T22:43:15.298Z,29.00
2022-12-08T22:45:46.397Z,37.60
2022-12-08T22:50:47.283Z,38.60
2022-12-08T22:53:18.286Z,31.80
2022-12-08T22:55:49.726Z,31.70
2022-12-08T22:58:20.908Z,41.90
2022-12-08T23:00:52.165Z,41.60
2022-12-08T23:03:23.137Z,57.00
2022-12-08T23:05:54.346Z,39.20
2022-12-08T23:08:25.670Z,27.90
2022-12-08T23:10:57.506Z,43.80
2022-12-08T23:13:28.503Z,36.90
2022-12-08T23:15:59.354Z,40.60
2022-12-08T23:18:30.382Z,38.80
2022-12-08T23:21:05.807Z,36.00
2022-12-08T23:23:37.646Z,40.30
2022-12-08T23:28:46.185Z,33.10
2022-12-08T23:31:17.872Z,43.20
2022-12-08T23:33:49.900Z,36.50
2022-12-08T23:36:22.046Z,36.80
2022-12-08T23:38:53.782Z,30.40
2022-12-08T23:41:24.986Z,33.30
2022-12-08T23:43:55.950Z,24.60
2022-12-08T23:46:27.383Z,25.00
2022-12-08T23:48:58.587Z,28.00
2022-12-08T23:51:29.682Z,26.00
2022-12-08T23:54:00.779Z,21.50
2022-12-08T23:56:31.649Z,26.70
2022-12-08T23:59:04.272Z,24.30
